Nearby METAR Reports

 

CYFC - Fredericton Airp, New Brunswick
Distance from station: E 14km
Updated: Sat, 13-Jul-2024 11:14am ADT
Light rain, Overcast
Light rain, Overcast
 Wind from WSW
Wind: WSW 9 km/h
Temperature: 24°C
Dew Point: 21°C
Humidity: 83%
Barometer: 1019 hPa
Summary: Light rain
Clouds: Overcast
Visibility: 14 km
Cloud details: Mostly cloudy 2926 m
Overcast 3962 m
2024/07/13 14:14 CYFC 131414Z AUTO 24005KT 9SM -RA BKN096 OVC130 24/21 A3009 RMK SLP190 DENSITY ALT 1000FT
CYCX - Gagetown (can M, New Brunswick
Distance from station: E 22km
Updated: Fri, 12-Jul-2024 3:10pm ADT
NOT Current
Overcast
Overcast
 Wind from NNW
Wind: NNW 6 km/h
Temperature: 24°C
Dew Point: 22°C
Humidity: 89%
Barometer: 1019.3 hPa
Clouds: Overcast
Visibility: 21 km
Cloud details: Overcast 366 m
2024/07/12 18:10 CYCX 121810Z 33003KT 220V360 13SM OVC012 24/22 A3010 RMK SC8 DENSITY ALT 1385FT LAST OBS /NEXT 150700 UTC SLP191
 
CYQM - Moncton Airport, New Brunswick
Distance from station: ENE 159km
Updated: Sat, 13-Jul-2024 11:00am ADT
Partly cloudy
Partly cloudy
 Wind from WSW
Wind: WSW 22 km/h
Temperature: 26°C
Dew Point: 21°C
Humidity: 74%
Barometer: 1017.6 hPa
Clouds: Partly cloudy
Visibility: 24 km
Cloud details: Few Clouds 610 m
Few Clouds 1067 m
Few Clouds 4572 m
Partly cloudy 6706 m
2024/07/13 14:00 CYQM 131400Z 24012KT 15SM FEW020 FEW035 FEW150 SCT220 26/21 A3005 RMK CU1SC1AC1CI4 CU TR SC TR AC TR SLP178 DENSITY ALT 1500FT
CYSJ - Saint John, New Brunswick
Distance from station: SE 88km
Updated: Sat, 13-Jul-2024 11:00am ADT
Mostly cloudy
Mostly cloudy
 Wind from SSW
Wind: SSW 15 km/h
Temperature: 24°C
Dew Point: 20°C
Humidity: 78%
Barometer: 1019.3 hPa
Clouds: Mostly cloudy
Visibility: 24 km
Cloud details: Few Clouds 122 m
Few Clouds 2316 m
Mostly cloudy 6706 m
2024/07/13 14:00 CYSJ 131400Z 21008KT 170V250 15SM FEW004 FEW076 BKN220 24/20 A3010 RMK SF1AC2CI3 SF TR SLP195 DENSITY ALT 1400FT
 
CWPE - Point Lepreau, New Brunswick
Distance from station: SSE 90km
Updated: Sat, 13-Jul-2024 11:00am ADT

 Wind from WNW
Wind: WNW 11 km/h
Temperature: 15°C
Dew Point: 14°C
Humidity: 94%
2024/07/13 14:00 CWPE 131400Z AUTO 29006KT 15/14 RMK AO1 SLP203 T01490138 53002
CYHZ - Halifax Intl Arp, Nova Scotia
Distance from station: ESE 273km
Updated: Sat, 13-Jul-2024 11:00am ADT
Mostly cloudy
Mostly cloudy
 Wind from W
Wind: W 24 km/h, Gust: 33 km/h
Temperature: 25°C
Dew Point: 22°C
Humidity: 83%
Barometer: 1019.6 hPa
Clouds: Mostly cloudy
Visibility: 24 km
Cloud details: Mostly cloudy 396 m
Mostly cloudy 6706 m
2024/07/13 14:00 CYHZ 131400Z 26013G18KT 15SM BKN013 BKN220 25/22 A3011 RMK SC6CC1 SLP198 DENSITY ALT 1500FT
 
CYZX - Greenwood (can M, Nova Scotia
Distance from station: SE 169km
Updated: Sat, 13-Jul-2024 11:00am ADT
Mostly cloudy
Mostly cloudy
 Wind from WSW
Wind: WSW 15 km/h
Temperature: 25°C
Dew Point: 21°C
Humidity: 79%
Barometer: 1019.6 hPa
Clouds: Mostly cloudy
Visibility: 19 km
Cloud details: Partly cloudy 396 m
Mostly cloudy 1524 m
Mostly cloudy 7620 m
2024/07/13 14:00 CYZX 131400Z 25008KT 12SM SCT013 BKN050 BKN250 25/21 A3011 RMK SC3SC2CI1 DENSITY ALT 1339FT SLP196
CYQI - Yarmouth Airport, Nova Scotia
Distance from station: SSE 230km
Updated: Sat, 13-Jul-2024 11:00am ADT
Fog, Overcast
Fog, Overcast
 Wind from S
Wind: S 9 km/h
Temperature: 20°C
Dew Point: 20°C
Humidity: 100%
Barometer: 1021 hPa
Summary: Fog
Clouds: Overcast
Visibility: 0.4 km
Cloud details: Overcast 61 m
2024/07/13 14:00 CYQI 131400Z 18005KT 1/4SM FG VV002 20/20 A3015 RMK FG8 WIND EST SLP212 DENSITY ALT 500FT
 
KHUL - Houlton, Maine, USA
Distance from station: WNW 90km
Updated: Sat, 13-Jul-2024 10:53am ADT
Mostly cloudy
Mostly cloudy
 Wind from SW
Wind: SW 11 km/h
Temperature: 23°C
Dew Point: 20°C
Humidity: 83%
Barometer: 1018.3 hPa
Clouds: Mostly cloudy
Visibility: 16 km
Cloud details: Mostly cloudy 3048 m
2024/07/13 13:53 KHUL 131353Z AUTO 22006KT 10SM BKN100 23/20 A3007 RMK AO2 SLP183 T02330200
KPQI - Presque Isle, Maine, USA
Distance from station: NW 137km
Updated: Sat, 13-Jul-2024 10:56am ADT
Haze, Few clouds
Haze, Few clouds
 Wind from SSW
Wind: SSW 13 km/h
Temperature: 24°C
Dew Point: 21°C
Humidity: 83%
Barometer: 1018.6 hPa
Summary: Haze
Clouds: Few Clouds
Visibility: 10 km
Cloud details: Few Clouds 518 m
2024/07/13 13:56 KPQI 131356Z AUTO 20007KT 6SM HZ FEW017 24/21 A3008 RMK AO2 SLP207 T02440206
 
KCAR - Caribou, Maine, USA
Distance from station: NW 151km
Updated: Sat, 13-Jul-2024 10:54am ADT
Clear
Clear
 Wind from SW
Wind: SW 11 km/h
Temperature: 24°C
Dew Point: 20°C
Humidity: 78%
Barometer: 1017.9 hPa
Clouds: Clear
Visibility: 16 km
2024/07/13 13:54 KCAR 131354Z AUTO 22006KT 10SM CLR 24/20 A3006 RMK AO2 SLP180 T02390200
KMLT - Millinocket, Maine, USA
Distance from station: W 157km
Updated: Sat, 13-Jul-2024 10:53am ADT
Overcast
Overcast
 Wind from calm
Wind: Calm
Temperature: 24°C
Dew Point: 21°C
Humidity: 83%
Barometer: 1019.6 hPa
Clouds: Overcast
Visibility: 16 km
Cloud details: Overcast 2743 m
2024/07/13 13:53 KMLT 131353Z AUTO 00000KT 10SM OVC090 24/21 A3011 RMK AO2 SLP199 T02440211
 
KBGR - Bangor, Maine, USA
Distance from station: SW 203km
Updated: Sat, 13-Jul-2024 10:53am ADT
Overcast
Overcast
 Wind from S
Wind: S 6 km/h
Temperature: 24°C
Dew Point: 22°C
Humidity: 89%
Barometer: 1019.6 hPa
Clouds: Overcast
Visibility: 16 km
Cloud details: Few Clouds 152 m
Overcast 2134 m
2024/07/13 13:53 KBGR 131353Z 17003KT 10SM FEW005 OVC070 24/22 A3011 RMK AO2 RAE20 SLP192 P0005 T02390222
KBHB - Bar Harbor, Maine, USA
Distance from station: SW 204km
Updated: Sat, 13-Jul-2024 10:56am ADT
Overcast
Overcast
 Wind from SW
Wind: SW 11 km/h
Temperature: 22°C
Dew Point: 21°C
Humidity: 94%
Barometer: 1020.3 hPa
Clouds: Overcast
Visibility: 16 km
Cloud details: Few Clouds 183 m
Mostly cloudy 1341 m
Overcast 1829 m
2024/07/13 13:56 KBHB 131356Z AUTO 22006KT 10SM FEW006 BKN044 OVC060 22/21 A3013 RMK AO2 SLP203 T02170206
 
CWVU - Brier Island(Aut, Nova Scotia
Distance from station: S 177km
Updated: Sat, 13-Jul-2024 11:00am ADT

 Wind from SSW
Wind: SSW 19 km/h, Gust: 31 km/h
Temperature: 18°C
Dew Point: 18°C
Humidity: 100%
2024/07/13 14:00 CWVU 131400Z AUTO 20010G17KT 18/18 RMK AO1 PK WND 22020/1346 SLP200 T01800178 57005
CXNP - Nappan (auto), Nova Scotia
Distance from station: E 191km
Updated: Sat, 13-Jul-2024 11:00am ADT

 Wind from W
Wind: W 11 km/h
Temperature: 23°C
Dew Point: 19°C
Humidity: 78%
2024/07/13 14:00 CXNP 131400Z AUTO 28006KT 23/19 RMK AO1 SLP189 T02310191 55004
 
CXKT - Kentville (autob, Nova Scotia
Distance from station: ESE 193km
Updated: Sat, 13-Jul-2024 11:00am ADT

 Wind from W
Wind: W 11 km/h
Temperature: 25°C
Dew Point: 22°C
Humidity: 83%
2024/07/13 14:00 CXKT 131400Z AUTO 27006KT 25/22 RMK AO1 SLP192 T02500218 57007
CWKG - Kejimkujik (au8), Nova Scotia
Distance from station: SE 197km
Updated: Sat, 13-Jul-2024 11:00am ADT

 Wind from WSW
Wind: WSW 7 km/h
Temperature: 22°C
Dew Point: 21°C
Humidity: 94%
2024/07/13 14:00 CWKG 131400Z AUTO 25004KT 22/21 RMK AO1 SLP207 T02240211 56006
 
KFVE - Frenchville, Maine, USA
Distance from station: NW 201km
Updated: Sat, 13-Jul-2024 10:53am ADT
Clear
Clear
 Wind from WSW
Wind: WSW 9 km/h
Temperature: 26°C
Dew Point: 18°C
Humidity: 61%
Barometer: 1017.9 hPa
Clouds: Clear
Visibility: 16 km
2024/07/13 13:53 KFVE 131353Z AUTO 25005KT 10SM CLR 26/18 A3006 RMK AO2 SLP173 T02560183
CZBF - Bathurst Arpt(Aw, New Brunswick
Distance from station: NNE 208km
Updated: Sat, 13-Jul-2024 11:00am ADT
Clear
Clear
 Wind from W
Wind: W 7 km/h
Temperature: 27°C
Heat Index: 28°C
Dew Point: 19°C
Humidity: 62%
Barometer: 1016.6 hPa
Clouds: Clear
Visibility: 14 km
2024/07/13 14:00 CZBF 131400Z AUTO 27004KT 9SM CLR 27/19 A3002 RMK SLP166 DENSITY ALT 1500FT
 
CERM - Edmunston, New Brunswick
Distance from station: NW 213km
Updated: Sat, 13-Jul-2024 11:00am ADT

 Wind from E
Wind: E 2 km/h
Temperature: 26°C
Dew Point: 20°C
Humidity: 70%
2024/07/13 14:00 CERM 131400Z AUTO 10001KT 26/20 RMK AO1 SLP174 T02610195 58010
KGNR - Greenville, Maine, USA
Distance from station: W 226km
Updated: Sat, 13-Jul-2024 10:56am ADT

 Wind from varies
Wind: varies 6 km/h
Temperature: 23°C
Dew Point: 20°C
Humidity: 83%
Barometer: 1020 hPa
2024/07/13 13:56 KGNR 131356Z AUTO VRB03KT 23/20 A3012 RMK AO1 SLP195 T02330200
 
CWSD - Summerside (auto, PEI
Distance from station: ENE 228km
Updated: Sat, 13-Jul-2024 11:00am ADT

 Wind from SW
Wind: SW 19 km/h, Gust: 30 km/h
Temperature: 24°C
Dew Point: 23°C
Humidity: 94%
2024/07/13 14:00 CWSD 131400Z AUTO 23010G16KT 24/23 RMK AO1 SLP174 T02370227 58004
K40B - Clayton Lake, Maine, USA
Distance from station: WNW 233km
Updated: Sat, 13-Jul-2024 11:21am ADT

 Wind from calm
Wind: Calm
Temperature: 26°C
Dew Point: 19°C
Humidity: 65%
Barometer: 1019 hPa
2024/07/13 14:21 K40B 131421Z AUTO 00000KT 26/19 A3009 RMK AO1 SLP182 T02610190 58008
 
CZCR - Charlo Airport, New Brunswick
Distance from station: N 236km
Updated: Sat, 13-Jul-2024 11:00am ADT

 Wind from W
Wind: W 13 km/h
Temperature: 26°C
Dew Point: 20°C
Humidity: 70%
2024/07/13 14:00 CZCR 131400Z AUTO 28007KT 26/20 RMK AO1 SLP158 T02560196 57008
CWNE - North Point (aut, Ontario
Distance from station: NE 246km
Updated: Sat, 13-Jul-2024 11:00am ADT

 Wind from SW
Wind: SW 26 km/h
Temperature: 22°C
Dew Point: 20°C
Humidity: 88%
2024/07/13 14:00 CWNE 131400Z AUTO 23014KT 22/20 RMK AO1 SLP162 T02190199 50000
 
CXLB - Lunenburg, Nova Scotia
Distance from station: SE 250km
Updated: Sat, 13-Jul-2024 11:00am ADT

 Wind from W
Wind: W 19 km/h, Gust: 31 km/h
Temperature: 23°C
Dew Point: 21°C
Humidity: 89%
2024/07/13 14:00 CXLB 131400Z AUTO 26010G17KT 23/21 RMK AO1 PK WND 27017/1359 SLP196 T02290211 56007
CZDB - Debert, Nova Scotia
Distance from station: E 255km
Updated: Sat, 13-Jul-2024 11:00am ADT

 Wind from WSW
Wind: WSW 11 km/h
Temperature: 20°C
Dew Point: 19°C
Humidity: 94%
2024/07/13 14:00 CZDB 131400Z AUTO 24006KT 20/19 RMK AO1 SLP193 T02040190 58005
 
CWOC - New Carlisle1, Quebec
Distance from station: NNE 262km
Updated: Sat, 13-Jul-2024 11:00am ADT

 Wind from W
Wind: W 17 km/h, Gust: 31 km/h
Temperature: 24°C
Dew Point: 20°C
Humidity: 78%
2024/07/13 14:00 CWOC 131400Z AUTO 28009G17KT 24/20 RMK AO1 PK WND 30017/1340 SLP153 T02370197 58005
CWWE - Western Head (ma, Nova Scotia
Distance from station: SE 264km
Updated: Sat, 13-Jul-2024 11:00am ADT

 Wind from SW
Wind: SW 11 km/h
Temperature: 13°C
Dew Point: 12°C
Humidity: 94%
2024/07/13 14:00 CWWE 131400Z AUTO 23006KT 13/12 RMK AO1 SLP213 T01270124 55003
 
KRKD - Rockland/Knox, Maine, USA
Distance from station: SW 274km
Updated: Sat, 13-Jul-2024 10:56am ADT
Mostly cloudy
Mostly cloudy
 Wind from W
Wind: W 11 km/h
Temperature: 24°C
Dew Point: 22°C
Humidity: 89%
Barometer: 1020 hPa
Clouds: Mostly cloudy
Visibility: 16 km
Cloud details: Mostly cloudy 2743 m
2024/07/13 13:56 KRKD 131356Z AUTO 26006KT 10SM BKN090 24/22 A3012 RMK AO2 SLP199 T02390217 PNO $
CAHR - Harrington Cda, Ontario
Distance from station: ENE 277km
Updated: Sat, 13-Jul-2024 11:00am ADT

 Wind from WSW
Wind: WSW 24 km/h
Temperature: 24°C
Dew Point: 20°C
Humidity: 78%
2024/07/13 14:00 CAHR 131400Z AUTO 24013KT 24/20 RMK AO1 PK WND 24017/1329 SLP174 T02390199 58005
 
KWVL - Waterville, Maine, USA
Distance from station: WSW 277km
Updated: Sat, 13-Jul-2024 10:56am ADT
Clear
Clear
 Wind from calm
Wind: Calm
Barometer: 1019.3 hPa
Clouds: Clear
Visibility: 16 km
2024/07/13 13:56 KWVL 131356Z AUTO 00000KT 10SM CLR A3010 RMK AO2 SLPNO FZRANO $
CYYG - Charlottetown Ar, PEI
Distance from station: E 280km
Updated: Sat, 13-Jul-2024 10:00am ADT
NOT Current
Partly cloudy
Partly cloudy
 Wind from WSW
Wind: WSW 24 km/h, Gust: 33 km/h
Temperature: 23°C
Dew Point: 20°C
Humidity: 83%
Barometer: 1017.6 hPa
Clouds: Partly cloudy
Visibility: 24 km
Cloud details: Few Clouds 366 m
Partly cloudy 6096 m
Partly cloudy 7620 m
2024/07/13 13:00 CYYG 131300Z 24013G18KT 15SM FEW012 SCT200 SCT250 23/20 A3005 RMK CU1CC3CI1 CU TR OBS TAKEN +13 SLP177 DENSITY ALT 1000FT
 
CXMI - Mcnabs Island, Nova Scotia
Distance from station: ESE 284km
Updated: Sat, 13-Jul-2024 11:00am ADT

 Wind from ESE
Wind: ESE 6 km/h
Temperature: 20°C
Dew Point: 18°C
Humidity: 88%
2024/07/13 14:00 CXMI 131400Z AUTO 12003KT 20/18 RMK AO1 SLP196 T01970178 58007
KAUG - Augusta, Maine, USA
Distance from station: SW 298km
Updated: Sat, 13-Jul-2024 10:53am ADT
Mostly cloudy
Mostly cloudy
 Wind from S
Wind: S 6 km/h
Temperature: 26°C
Dew Point: 21°C
Humidity: 74%
Barometer: 1020.3 hPa
Clouds: Mostly cloudy
Visibility: 16 km
Cloud details: Mostly cloudy 2743 m
2024/07/13 13:53 KAUG 131353Z AUTO 17003KT 10SM BKN090 26/21 A3013 RMK AO2 SLP201 T02610211
 
CWST - La Pocatiere, Quebec
Distance from station: NW 303km
Updated: Sat, 13-Jul-2024 11:00am ADT

 Wind from WSW
Wind: WSW 17 km/h
Temperature: 26°C
Dew Point: 22°C
Humidity: 79%
2024/07/13 14:00 CWST 131400Z AUTO 25009KT 26/22 RMK AO1 SLP168 T02620219 58009
CWNH - Riviere Du Loup, Quebec
Distance from station: NW 304km
Updated: Sat, 13-Jul-2024 11:00am ADT

 Wind from SW
Wind: SW 9 km/h
Temperature: 24°C
Dew Point: 20°C
Humidity: 78%
2024/07/13 14:00 CWNH 131400Z AUTO 22005KT 24/20 RMK AO1 SLP173 T02420204 58006
 
CWBK - Caribou Point(Ma, Nova Scotia
Distance from station: E 312km
Updated: Sat, 13-Jul-2024 11:00am ADT

 Wind from WSW
Wind: WSW 15 km/h
Temperature: 27°C
Heat Index: 29°C
Dew Point: 22°C
Humidity: 74%
2024/07/13 14:00 CWBK 131400Z AUTO 24008KT 27/22 RMK AO1 SLP178 T02710216 58006
CWHV - Beauceville, Quebec
Distance from station: W 317km
Updated: Sat, 13-Jul-2024 11:00am ADT

 Wind from S
Wind: S 4 km/h
Temperature: 25°C
Dew Point: 20°C
Humidity: 74%
2024/07/13 14:00 CWHV 131400Z AUTO 19002KT 25/20 RMK AO1 SLP187 T02490202 58009
 
KIWI - Wiscasset, Maine, USA
Distance from station: SW 318km
Updated: Sat, 13-Jul-2024 10:53am ADT
Few Clouds
Few Clouds
 Wind from SSW
Wind: SSW 7 km/h
Temperature: 26°C
Dew Point: 22°C
Humidity: 79%
Barometer: 1020.3 hPa
Clouds: Few Clouds
Visibility: 16 km
Cloud details: Few Clouds 305 m
2024/07/13 13:53 KIWI 131353Z AUTO 20004KT 10SM FEW010 26/22 A3013 RMK AO2 SLP203 T02610217